Portada
METAR-TAF:

METAR-TAF

Aeroports :

Dodoma, Tanzània

latitud: 06-10S, longitud: 035-46E, altitud: 1119 m

Observació

L'informe es va fer fa 5 hores i 7 minuts, a les 21:00 UTC
Vent 8 kt del Est
Temperatura 22°C
Humitat 94%
Pressió 1018 hPa
Visibilitat 10 km o més
Escasses núvols a una alçada de 2100 ft
Escasses núvols a una alçada de 2200 ft, Cumulonimbus.
Cel ennuvolat a una alçada de 7000 ft
plugim

METAR: HTDO 242100Z 09008KT 9999 DZ FEW021 FEW022CB BKN070 22/21 Q1018

Hora: 05:07 (02:07 UTC)

Pronòstic

L'informe es va fer fa 9 hores i 7 minuts, a les 17:00 UTC
Pronòstic vàlid del 24 a les 18 UTC al 25 a les 18 UTC
Vent kt del Nord
Visibilitat 10 km o més
Núvols disperses a una alçada de 2100 ft
Escasses núvols a una alçada de 2200 ft, Cumulonimbus.
Cel ennuvolat a una alçada de 8000 ft

TAF: HTDO 241700Z 2418/2518 00000KT 9999 SCT021 FEW022CB BKN080

Observacions i pronòstics meteorològics de més de 4000 aeroports (METAR i TAF).

Les estacions disponibles són els punts grocs i vermells al mapa.

Posi el ratolí al punt desitjat per veure el nom de l'estació.

Feu clic per veure les observacions i els pronòstics meteorològics.

Per canviar el mapa: feu clic els botons verds amb una creu de color negre per apropar; al botó verd amb un guió per allunyar la imatge; o en les fletxes verdes per a mapes adjacents.


METAR-TAF: